createdAt,value
2019-02-15T00:02:26.332Z,25.20
2019-02-15T00:04:54.819Z,27.83
2019-02-15T00:07:23.448Z,27.87
2019-02-15T00:09:51.873Z,38.87
2019-02-15T00:12:20.298Z,29.17
2019-02-15T00:14:49.157Z,26.30
2019-02-15T00:17:19.340Z,28.17
2019-02-15T00:19:52.371Z,27.57
2019-02-15T00:22:20.933Z,30.50
2019-02-15T00:24:49.364Z,27.00
2019-02-15T00:27:17.799Z,25.53
2019-02-15T00:29:46.295Z,26.70
2019-02-15T00:32:15.084Z,25.70
2019-02-15T00:34:43.516Z,22.70
2019-02-15T00:37:11.934Z,21.87
2019-02-15T00:39:40.503Z,20.73
2019-02-15T00:42:09.064Z,22.37
2019-02-15T00:44:37.547Z,22.30
2019-02-15T00:47:22.216Z,24.53
2019-02-15T00:49:52.568Z,22.93
2019-02-15T00:52:22.776Z,23.13
2019-02-15T00:55:07.703Z,21.03
2019-02-15T00:57:52.400Z,19.70
2019-02-15T01:00:22.513Z,22.63
2019-02-15T01:02:52.629Z,21.93
2019-02-15T01:05:22.809Z,21.40
2019-02-15T01:07:52.843Z,22.30
2019-02-15T01:10:37.884Z,21.87
2019-02-15T01:13:08.018Z,23.27
2019-02-15T01:15:36.501Z,22.30
2019-02-15T01:18:04.914Z,21.47
2019-02-15T01:20:33.418Z,22.20
2019-02-15T01:23:01.908Z,21.87
2019-02-15T01:25:32.110Z,19.70
2019-02-15T01:28:02.244Z,20.63
2019-02-15T01:30:48.643Z,19.83
2019-02-15T01:33:21.729Z,22.00
2019-02-15T01:36:03.594Z,21.10
2019-02-15T01:38:39.377Z,21.73
2019-02-15T01:41:12.572Z,20.73
2019-02-15T01:43:45.208Z,20.97
2019-02-15T01:46:18.087Z,21.67
2019-02-15T01:48:46.577Z,22.47
2019-02-15T01:51:15.135Z,22.27
2019-02-15T01:53:43.578Z,23.07
2019-02-15T01:56:11.985Z,23.90
2019-02-15T01:58:40.550Z,24.13
2019-02-15T02:01:09.175Z,23.60
2019-02-15T02:03:37.675Z,22.90
2019-02-15T02:06:06.161Z,23.97
2019-02-15T02:08:34.765Z,26.00
2019-02-15T02:11:03.275Z,26.00
2019-02-15T02:13:31.770Z,25.87
2019-02-15T02:16:00.212Z,28.13
2019-02-15T02:18:28.594Z,28.27
2019-02-15T02:20:57.151Z,28.40
2019-02-15T02:23:25.653Z,26.77
2019-02-15T02:25:54.154Z,26.00
2019-02-15T02:28:22.650Z,27.93
2019-02-15T02:30:51.211Z,28.10
2019-02-15T02:33:19.802Z,26.90
2019-02-15T02:35:48.356Z,29.33
2019-02-15T02:38:16.914Z,30.70
2019-02-15T02:40:45.332Z,31.20
2019-02-15T02:43:13.809Z,33.43
2019-02-15T02:45:42.361Z,29.97
2019-02-15T02:48:10.787Z,31.50
2019-02-15T02:50:39.295Z,29.97
2019-02-15T02:53:07.711Z,30.03
2019-02-15T02:55:36.189Z,30.37
2019-02-15T02:58:04.756Z,29.90
2019-02-15T03:00:33.962Z,29.43
2019-02-15T03:03:02.590Z,29.80
2019-02-15T03:05:31.149Z,28.03
2019-02-15T03:07:59.657Z,28.00
2019-02-15T03:10:28.081Z,28.63
2019-02-15T03:12:56.621Z,27.77
2019-02-15T03:15:25.131Z,26.97
2019-02-15T03:17:53.611Z,25.60
2019-02-15T03:20:30.777Z,26.67
2019-02-15T03:22:52.472Z,26.10
2019-02-15T03:25:21.012Z,21.03
2019-02-15T03:27:49.587Z,20.47
2019-02-15T03:30:18.170Z,22.00
2019-02-15T03:32:46.698Z,45.63
2019-02-15T03:35:15.336Z,53.70
2019-02-15T03:37:45.474Z,45.90
2019-02-15T03:40:21.557Z,33.03
2019-02-15T03:42:50.184Z,26.63
2019-02-15T03:45:18.820Z,26.67
2019-02-15T03:47:47.459Z,26.83
2019-02-15T03:50:16.019Z,28.07
2019-02-15T03:52:44.473Z,29.93
2019-02-15T03:55:12.946Z,24.10
2019-02-15T03:57:41.514Z,20.80
2019-02-15T04:00:12.262Z,14.73
2019-02-15T04:02:40.669Z,10.00
2019-02-15T04:05:09.210Z,8.27
2019-02-15T04:07:37.772Z,7.20
2019-02-15T04:10:08.400Z,6.37
2019-02-15T04:12:36.952Z,6.60
2019-02-15T04:15:06.972Z,8.10
2019-02-15T04:17:35.461Z,9.23
2019-02-15T04:20:05.281Z,12.53
2019-02-15T04:22:33.698Z,8.67
2019-02-15T04:25:02.122Z,8.37
2019-02-15T04:27:30.677Z,9.73
2019-02-15T04:29:59.175Z,9.70
2019-02-15T04:32:27.598Z,10.50
2019-02-15T04:34:56.168Z,10.03
2019-02-15T04:37:24.646Z,10.90
2019-02-15T04:39:53.216Z,9.30
2019-02-15T04:42:21.721Z,12.97
2019-02-15T04:44:50.340Z,15.80
2019-02-15T04:47:18.934Z,18.07
2019-02-15T04:49:47.409Z,18.90
2019-02-15T04:52:15.918Z,20.50
2019-02-15T04:54:44.471Z,23.50
2019-02-15T04:57:13.018Z,25.00
2019-02-15T04:59:41.596Z,25.30
2019-02-15T05:02:10.071Z,25.23
2019-02-15T05:04:38.608Z,24.20
2019-02-15T05:07:07.176Z,27.70
2019-02-15T05:09:35.671Z,28.53
2019-02-15T05:12:04.168Z,29.53
2019-02-15T05:14:52.769Z,30.37
2019-02-15T05:17:15.707Z,32.00
2019-02-15T05:19:44.119Z,34.03
2019-02-15T05:22:12.612Z,33.63
2019-02-15T05:24:41.103Z,42.63
2019-02-15T05:27:09.665Z,36.43
2019-02-15T05:29:38.220Z,33.47
2019-02-15T05:32:06.849Z,33.47
2019-02-15T05:34:35.528Z,31.63
2019-02-15T05:37:04.101Z,30.03
2019-02-15T05:39:32.654Z,31.97
2019-02-15T05:42:01.294Z,29.57
2019-02-15T05:44:29.786Z,28.30
2019-02-15T05:46:58.351Z,27.57
2019-02-15T05:49:26.892Z,40.50
2019-02-15T05:51:55.416Z,40.70
2019-02-15T05:54:24.046Z,35.60
2019-02-15T05:56:52.601Z,42.90
2019-02-15T05:59:21.183Z,36.27
2019-02-15T06:01:49.727Z,40.17
2019-02-15T06:04:18.411Z,42.27
2019-02-15T06:06:46.906Z,42.20
2019-02-15T06:09:15.541Z,46.50
2019-02-15T06:11:44.182Z,48.03
2019-02-15T06:14:12.723Z,50.47
2019-02-15T06:16:41.219Z,53.97
2019-02-15T06:19:09.791Z,44.93
2019-02-15T06:21:38.410Z,38.37
2019-02-15T06:24:06.976Z,30.17
2019-02-15T06:26:35.455Z,33.80
2019-02-15T06:29:04.010Z,28.80
2019-02-15T06:31:32.643Z,25.37
2019-02-15T06:34:01.216Z,23.60
2019-02-15T06:36:31.411Z,21.43
2019-02-15T06:38:59.979Z,23.83
2019-02-15T06:41:28.467Z,21.40
2019-02-15T06:43:57.039Z,17.57
2019-02-15T06:46:25.605Z,17.63
2019-02-15T06:48:54.247Z,15.90
2019-02-15T06:51:23.097Z,19.87
2019-02-15T06:53:51.515Z,14.73
2019-02-15T06:56:20.107Z,11.17
2019-02-15T06:59:06.281Z,11.20
2019-02-15T07:01:36.506Z,12.97
2019-02-15T07:04:06.709Z,14.87
2019-02-15T07:06:35.260Z,16.23
2019-02-15T07:09:04.769Z,17.13
2019-02-15T07:11:33.243Z,15.47
2019-02-15T07:14:01.807Z,14.23
2019-02-15T07:16:30.290Z,14.00
2019-02-15T07:18:58.697Z,16.30
2019-02-15T07:21:27.183Z,27.47
2019-02-15T07:23:55.744Z,22.07
2019-02-15T07:26:24.384Z,28.90
2019-02-15T07:28:52.936Z,24.80
2019-02-15T07:31:21.562Z,33.57
2019-02-15T07:33:50.196Z,26.53
2019-02-15T07:36:18.692Z,26.00
2019-02-15T07:38:47.248Z,25.00
2019-02-15T07:41:15.735Z,23.27
2019-02-15T07:43:44.283Z,19.57
2019-02-15T07:46:12.701Z,19.17
2019-02-15T07:48:41.330Z,14.57
2019-02-15T07:51:10.141Z,12.57
2019-02-15T07:53:38.715Z,15.53
2019-02-15T07:56:07.215Z,17.30
2019-02-15T07:58:35.720Z,14.33
2019-02-15T08:01:04.212Z,28.00
2019-02-15T08:03:32.799Z,13.53
2019-02-15T08:06:01.340Z,7.20
2019-02-15T08:08:29.836Z,7.93
2019-02-15T08:10:58.314Z,6.93
2019-02-15T08:13:26.882Z,6.27
2019-02-15T08:15:55.373Z,8.33
2019-02-15T08:18:23.960Z,8.10
2019-02-15T08:20:52.511Z,8.23
2019-02-15T08:23:20.996Z,8.43
2019-02-15T08:25:49.570Z,5.83
2019-02-15T08:28:18.164Z,8.83
2019-02-15T08:30:46.746Z,10.03
2019-02-15T08:33:15.313Z,4.47
2019-02-15T08:35:43.868Z,4.10
2019-02-15T08:38:12.419Z,4.70
2019-02-15T08:40:40.997Z,7.13
2019-02-15T08:43:09.385Z,6.23
2019-02-15T08:45:37.872Z,6.03
2019-02-15T08:48:06.428Z,5.90
2019-02-15T08:50:34.982Z,5.60
2019-02-15T08:53:03.468Z,7.00
2019-02-15T08:55:32.119Z,8.17
2019-02-15T08:58:00.672Z,8.37
2019-02-15T09:00:29.173Z,7.80
2019-02-15T09:02:57.783Z,9.40
2019-02-15T09:05:26.203Z,9.83
2019-02-15T09:07:54.693Z,7.13
2019-02-15T09:10:23.184Z,8.27
2019-02-15T09:12:51.646Z,9.43
2019-02-15T09:15:22.376Z,8.43
2019-02-15T09:17:51.007Z,12.63
2019-02-15T09:20:19.607Z,21.33
2019-02-15T09:22:48.141Z,16.57
2019-02-15T09:25:16.706Z,14.97
2019-02-15T09:28:03.152Z,18.03
2019-02-15T09:30:31.651Z,13.20
2019-02-15T09:33:00.108Z,11.10
2019-02-15T09:35:28.680Z,10.03
2019-02-15T09:37:57.146Z,9.43
2019-02-15T09:40:25.761Z,7.40
2019-02-15T09:42:54.250Z,6.97
2019-02-15T09:45:22.800Z,4.97
2019-02-15T09:47:52.030Z,6.78
2019-02-15T09:50:21.153Z,5.97
2019-02-15T09:52:50.315Z,6.08
2019-02-15T09:55:19.458Z,6.87
2019-02-15T09:57:48.776Z,6.97
2019-02-15T10:00:17.910Z,6.28
2019-02-15T10:02:47.055Z,6.00
2019-02-15T10:05:16.139Z,5.80
2019-02-15T10:07:45.272Z,5.60
2019-02-15T10:10:14.324Z,6.17
2019-02-15T10:12:43.500Z,7.87
2019-02-15T10:15:12.566Z,4.95
2019-02-15T10:17:41.685Z,4.90
2019-02-15T10:20:10.860Z,6.50
2019-02-15T10:22:40.000Z,6.70
2019-02-15T10:25:09.800Z,4.95
2019-02-15T10:27:38.948Z,7.08
2019-02-15T10:30:12.408Z,6.90
2019-02-15T10:32:41.621Z,9.68
2019-02-15T10:35:11.371Z,8.43
2019-02-15T10:37:40.522Z,8.03
2019-02-15T10:40:10.810Z,6.90
2019-02-15T10:42:39.891Z,7.58
2019-02-15T10:45:16.632Z,8.08
2019-02-15T10:47:45.805Z,6.22
2019-02-15T10:50:14.926Z,8.15
2019-02-15T10:52:44.151Z,8.70
2019-02-15T10:55:13.288Z,5.75
2019-02-15T10:57:42.451Z,6.47
2019-02-15T11:00:15.685Z,7.08
2019-02-15T11:02:45.052Z,5.08
2019-02-15T11:05:14.700Z,8.28
2019-02-15T11:07:43.709Z,4.37
2019-02-15T11:10:12.835Z,3.00
2019-02-15T11:12:42.054Z,4.87
2019-02-15T11:15:17.525Z,7.10
2019-02-15T11:17:46.701Z,6.28
2019-02-15T11:20:17.300Z,6.45
2019-02-15T11:22:46.369Z,5.25
2019-02-15T11:25:15.575Z,3.75
2019-02-15T11:27:44.736Z,3.30
2019-02-15T11:30:15.136Z,2.20
2019-02-15T11:32:44.254Z,2.20
2019-02-15T11:35:13.887Z,2.70
2019-02-15T11:37:43.100Z,3.42
2019-02-15T11:40:14.557Z,2.40
2019-02-15T11:42:43.632Z,2.90
2019-02-15T11:45:13.654Z,3.72
2019-02-15T11:47:42.790Z,5.22
2019-02-15T11:50:13.117Z,6.90
2019-02-15T11:52:42.257Z,3.02
2019-02-15T11:55:11.501Z,3.02
2019-02-15T11:57:40.648Z,10.08
2019-02-15T12:00:14.827Z,9.35
2019-02-15T12:02:44.177Z,4.53
2019-02-15T12:05:13.317Z,10.43
2019-02-15T12:07:42.518Z,10.88
2019-02-15T12:10:11.793Z,10.00
2019-02-15T12:12:40.921Z,7.50
2019-02-15T12:15:10.656Z,2.50
2019-02-15T12:17:39.800Z,5.95
2019-02-15T12:20:11.200Z,11.68
2019-02-15T12:22:40.338Z,5.75
2019-02-15T12:25:09.489Z,17.32
2019-02-15T12:27:38.632Z,10.95
2019-02-15T12:30:12.857Z,13.25
2019-02-15T12:32:41.942Z,11.78
2019-02-15T12:35:11.402Z,5.90
2019-02-15T12:37:40.445Z,6.65
2019-02-15T12:40:10.686Z,3.98
2019-02-15T12:42:39.907Z,3.20
2019-02-15T12:45:16.518Z,5.47
2019-02-15T12:47:45.722Z,5.70
2019-02-15T12:50:18.760Z,5.42
2019-02-15T12:52:47.945Z,3.98
2019-02-15T12:55:17.099Z,4.37
2019-02-15T12:57:46.300Z,5.85
2019-02-15T13:00:18.543Z,3.87
2019-02-15T13:02:47.636Z,7.12
2019-02-15T13:05:16.792Z,4.85
2019-02-15T13:07:45.995Z,4.08
2019-02-15T13:10:25.495Z,3.10
2019-02-15T13:12:54.550Z,4.33
2019-02-15T13:15:23.803Z,5.60
2019-02-15T13:17:52.967Z,3.25
2019-02-15T13:20:22.212Z,4.90
2019-02-15T13:22:51.288Z,3.00
2019-02-15T13:25:20.420Z,4.50
2019-02-15T13:27:49.639Z,5.33
2019-02-15T13:30:18.844Z,5.22
2019-02-15T13:32:47.435Z,3.50
2019-02-15T13:35:19.065Z,4.08
2019-02-15T13:37:48.137Z,2.65
2019-02-15T13:40:17.256Z,3.92
2019-02-15T13:42:46.389Z,3.10
2019-02-15T13:45:15.530Z,9.35
2019-02-15T13:47:44.678Z,3.33
2019-02-15T13:50:14.796Z,3.62
2019-02-15T13:52:43.802Z,3.65
2019-02-15T13:55:13.018Z,3.47
2019-02-15T13:57:42.130Z,2.30
2019-02-15T14:00:15.441Z,2.70
2019-02-15T14:02:44.490Z,3.00
2019-02-15T14:05:13.776Z,2.80
2019-02-15T14:07:42.987Z,3.42
2019-02-15T14:10:13.299Z,4.83
2019-02-15T14:12:42.496Z,6.28
2019-02-15T14:15:12.249Z,3.35
2019-02-15T14:17:48.026Z,2.70
2019-02-15T14:20:13.301Z,3.40
2019-02-15T14:22:42.308Z,3.90
2019-02-15T14:25:13.032Z,6.22
2019-02-15T14:27:42.200Z,3.58
2019-02-15T14:30:12.580Z,3.80
2019-02-15T14:32:41.828Z,4.03
2019-02-15T14:35:14.288Z,4.05
2019-02-15T14:37:43.432Z,7.00
2019-02-15T14:40:12.674Z,8.33
2019-02-15T14:42:41.298Z,6.07
2019-02-15T14:45:11.446Z,8.23
2019-02-15T14:47:40.803Z,10.03
2019-02-15T14:50:10.762Z,9.13
2019-02-15T14:52:39.321Z,26.80
2019-02-15T14:55:09.155Z,25.13
2019-02-15T14:57:37.631Z,31.20
2019-02-15T15:00:13.144Z,27.90
2019-02-15T15:02:41.698Z,23.63
2019-02-15T15:05:11.953Z,13.60
2019-02-15T15:07:40.427Z,12.80
2019-02-15T15:10:09.798Z,13.50
2019-02-15T15:12:38.415Z,12.03
2019-02-15T15:15:12.715Z,14.80
2019-02-15T15:17:41.279Z,11.90
2019-02-15T15:20:11.480Z,14.80
2019-02-15T15:22:40.108Z,10.83
2019-02-15T15:25:12.705Z,11.03
2019-02-15T15:27:41.269Z,11.03
2019-02-15T15:30:11.896Z,8.90
2019-02-15T15:32:40.457Z,13.03
2019-02-15T15:35:10.299Z,24.57
2019-02-15T15:37:38.866Z,20.33
2019-02-15T15:40:10.649Z,17.50
2019-02-15T15:42:39.221Z,13.10
2019-02-15T15:45:09.674Z,12.10
2019-02-15T15:47:38.312Z,10.80
2019-02-15T15:50:08.681Z,11.17
2019-02-15T15:52:37.299Z,11.43
2019-02-15T15:55:07.273Z,13.70
2019-02-15T15:57:35.859Z,14.07
2019-02-15T16:00:05.302Z,11.90
2019-02-15T16:02:33.934Z,11.43
2019-02-15T16:05:02.567Z,9.27
2019-02-15T16:07:31.205Z,9.13
2019-02-15T16:09:59.855Z,9.23
2019-02-15T16:12:28.498Z,10.30
2019-02-15T16:14:57.157Z,10.47
2019-02-15T16:17:27.443Z,12.27
2019-02-15T16:19:56.082Z,14.33
2019-02-15T16:22:26.061Z,16.17
2019-02-15T16:24:54.769Z,20.47
2019-02-15T16:27:23.335Z,22.37
2019-02-15T16:29:51.969Z,27.83
2019-02-15T16:32:20.615Z,29.67
2019-02-15T16:34:49.401Z,37.80
2019-02-15T16:37:18.037Z,36.67
2019-02-15T16:39:46.630Z,30.57
2019-02-15T16:42:15.275Z,19.93
2019-02-15T16:44:43.853Z,20.07
2019-02-15T16:47:12.348Z,18.90
2019-02-15T16:49:40.982Z,25.77
2019-02-15T16:52:09.623Z,25.90
2019-02-15T16:54:38.186Z,23.20
2019-02-15T16:57:06.769Z,24.73
2019-02-15T16:59:35.403Z,24.23
2019-02-15T17:02:03.978Z,19.77
2019-02-15T17:04:32.550Z,20.37
2019-02-15T17:07:01.118Z,14.83
2019-02-15T17:09:29.747Z,13.73
2019-02-15T17:12:00.146Z,41.10
2019-02-15T17:14:28.773Z,25.13
2019-02-15T17:16:57.421Z,26.27
2019-02-15T17:19:26.056Z,25.00
2019-02-15T17:21:54.572Z,24.27
2019-02-15T17:24:23.301Z,31.60
2019-02-15T17:26:51.966Z,17.30
2019-02-15T17:29:22.527Z,23.20
2019-02-15T17:31:51.187Z,48.47
2019-02-15T17:34:19.807Z,60.33
2019-02-15T17:36:48.421Z,50.03
2019-02-15T17:39:17.055Z,44.03
2019-02-15T17:41:45.682Z,52.67
2019-02-15T17:44:14.449Z,69.30
2019-02-15T17:46:43.099Z,79.40
2019-02-15T17:49:11.749Z,59.83
2019-02-15T17:51:41.953Z,47.30
2019-02-15T17:54:10.572Z,74.20
2019-02-15T17:56:39.086Z,58.13
2019-02-15T17:59:07.648Z,29.70
2019-02-15T18:01:36.303Z,32.50
2019-02-15T18:04:04.943Z,41.37
2019-02-15T18:06:33.586Z,21.37
2019-02-15T18:09:02.226Z,15.10
2019-02-15T18:11:30.869Z,15.40
2019-02-15T18:13:59.385Z,18.47
2019-02-15T18:16:28.265Z,21.33
2019-02-15T18:18:56.876Z,22.70
2019-02-15T18:21:25.514Z,26.93
2019-02-15T18:23:54.199Z,21.20
2019-02-15T18:26:22.920Z,17.87
2019-02-15T18:28:51.774Z,124.83
2019-02-15T18:31:20.409Z,94.27
2019-02-15T18:33:49.048Z,62.73
2019-02-15T18:36:17.713Z,63.87
2019-02-15T18:38:46.374Z,56.47
2019-02-15T18:41:15.010Z,52.33
2019-02-15T18:43:43.717Z,43.20
2019-02-15T18:46:12.407Z,43.77
2019-02-15T18:48:41.064Z,126.63
2019-02-15T18:51:09.672Z,55.37
2019-02-15T18:53:38.317Z,60.87
2019-02-15T18:56:06.966Z,57.13
2019-02-15T18:58:35.597Z,35.67
2019-02-15T19:01:04.181Z,23.57
2019-02-15T19:03:32.787Z,42.77
2019-02-15T19:06:01.446Z,59.60
2019-02-15T19:08:30.086Z,54.67
2019-02-15T19:10:58.758Z,13.20
2019-02-15T19:13:27.398Z,19.13
2019-02-15T19:15:56.038Z,21.30
2019-02-15T19:18:24.702Z,16.30
2019-02-15T19:20:53.404Z,20.77
2019-02-15T19:23:22.033Z,17.90
2019-02-15T19:25:50.706Z,34.07
2019-02-15T19:28:19.362Z,33.63
2019-02-15T19:30:47.925Z,32.23
2019-02-15T19:33:16.576Z,30.53
2019-02-15T19:35:45.213Z,26.27
2019-02-15T19:38:13.767Z,24.70
2019-02-15T19:40:42.426Z,23.73
2019-02-15T19:43:12.784Z,25.33
2019-02-15T19:45:41.362Z,27.13
2019-02-15T19:48:10.262Z,27.23
2019-02-15T19:50:38.850Z,28.30
2019-02-15T19:53:07.485Z,32.30
2019-02-15T19:55:36.046Z,28.00
2019-02-15T19:58:04.958Z,27.70
2019-02-15T20:00:35.487Z,32.07
2019-02-15T20:03:03.882Z,44.10
2019-02-15T20:05:32.528Z,40.27
2019-02-15T20:08:01.230Z,42.43
2019-02-15T20:10:30.563Z,37.00
2019-02-15T20:13:00.801Z,35.03
2019-02-15T20:15:29.630Z,34.57
2019-02-15T20:17:58.270Z,39.67
2019-02-15T20:20:26.769Z,40.03
2019-02-15T20:22:55.401Z,40.60
2019-02-15T20:25:23.965Z,41.03
2019-02-15T20:27:54.812Z,36.90
2019-02-15T20:30:23.853Z,35.23
2019-02-15T20:32:52.489Z,32.70
2019-02-15T20:35:21.119Z,29.33
2019-02-15T20:37:49.676Z,40.10
2019-02-15T20:40:18.428Z,37.33
2019-02-15T20:42:47.089Z,37.60
2019-02-15T20:45:21.138Z,42.43
2019-02-15T20:47:49.781Z,39.60
2019-02-15T20:50:18.945Z,40.67
2019-02-15T20:52:47.587Z,43.50
2019-02-15T20:55:18.491Z,35.03
2019-02-15T20:57:47.135Z,38.07
2019-02-15T21:00:21.593Z,40.20
2019-02-15T21:02:50.142Z,52.97
2019-02-15T21:05:18.628Z,54.33
2019-02-15T21:07:47.282Z,57.67
2019-02-15T21:10:15.895Z,53.07
2019-02-15T21:12:44.416Z,48.77
2019-02-15T21:15:14.026Z,48.40
2019-02-15T21:17:42.575Z,48.90
2019-02-15T21:20:12.420Z,46.73
2019-02-15T21:22:41.170Z,44.63
2019-02-15T21:25:11.713Z,47.57
2019-02-15T21:27:40.280Z,41.83
2019-02-15T21:30:14.653Z,42.17
2019-02-15T21:32:43.286Z,38.60
2019-02-15T21:35:11.851Z,39.37
2019-02-15T21:37:40.488Z,40.50
2019-02-15T21:40:17.290Z,40.00
2019-02-15T21:42:45.978Z,49.07
2019-02-15T21:45:14.500Z,43.60
2019-02-15T21:47:43.142Z,45.67
2019-02-15T21:50:17.256Z,47.20
2019-02-15T21:52:44.417Z,41.37
2019-02-15T21:55:14.165Z,41.03
2019-02-15T21:57:42.789Z,41.27
2019-02-15T22:00:14.784Z,58.63
2019-02-15T22:02:43.353Z,78.50
2019-02-15T22:05:12.000Z,52.20
2019-02-15T22:07:40.488Z,47.80
2019-02-15T22:10:09.861Z,44.63
2019-02-15T22:12:38.431Z,44.17
2019-02-15T22:15:10.130Z,28.33
2019-02-15T22:17:38.608Z,37.83
2019-02-15T22:20:10.062Z,38.13
2019-02-15T22:22:38.487Z,27.30
2019-02-15T22:25:07.802Z,38.47
2019-02-15T22:27:36.370Z,47.63
2019-02-15T22:30:15.387Z,50.13
2019-02-15T22:32:43.883Z,45.93
2019-02-15T22:35:12.482Z,38.43
2019-02-15T22:37:41.084Z,59.17
2019-02-15T22:40:30.079Z,68.13
2019-02-15T22:43:13.435Z,40.30
2019-02-15T22:45:42.009Z,33.63
2019-02-15T22:48:10.635Z,43.40
2019-02-15T22:50:39.197Z,54.67
2019-02-15T22:53:07.696Z,44.90
2019-02-15T22:55:36.244Z,47.90
2019-02-15T22:58:04.903Z,33.50
2019-02-15T23:00:55.881Z,29.33
2019-02-15T23:03:26.216Z,27.27
2019-02-15T23:05:54.772Z,25.10
2019-02-15T23:08:23.243Z,24.67
2019-02-15T23:10:51.731Z,24.83
2019-02-15T23:13:20.379Z,23.70
2019-02-15T23:15:49.021Z,23.70
2019-02-15T23:18:19.098Z,26.80
2019-02-15T23:20:47.637Z,26.00
2019-02-15T23:23:16.185Z,24.73
2019-02-15T23:25:44.742Z,27.20
2019-02-15T23:28:13.370Z,27.03
2019-02-15T23:30:41.968Z,25.50
2019-02-15T23:33:10.526Z,24.13
2019-02-15T23:35:39.088Z,26.17
2019-02-15T23:38:07.923Z,24.23
2019-02-15T23:40:36.421Z,23.10
2019-02-15T23:43:04.995Z,22.67
2019-02-15T23:45:33.410Z,23.60
2019-02-15T23:48:02.053Z,22.47
2019-02-15T23:50:30.544Z,23.20
2019-02-15T23:52:59.163Z,24.13
2019-02-15T23:55:27.661Z,23.20
2019-02-15T23:57:56.283Z,23.30
